Terminal Aerodrome Forecast
Issued by NWS Amarillo, TX

Home | Current Version | Previous Version | Text Only | Print | Product List | Glossary On
Versions: 1 2 3 4 5 6 7 8 9 10 11 12 13
839
FTUS44 KAMA 181124
TAFAMA
TAF
KAMA 181124Z 1812/1912 21011KT P6SM FEW300
     FM182200 16010KT P6SM SCT300=

USA.gov is the U.S. government's official web portal to all federal, state and local government web resources and services.